Warehouse Point, Connecticut
Current Conditions -  °F | °C
As of 7:51 PM on Friday 28 Nov 2014 (Local Time) from KBDL Reporting Station
Clear Clear  
Wind Chill: 16°   Ceiling: Unl
Heat Index: 27°   Visibility: 10mi
Dew Point: 14°   Wind: 13mph
Humidity: 58%   Direction: 290°WNW
Pressure: 30.2"   Gusts: NA
Location:  41.9062°N, 72.5958°W
Report Text: KBDL 290051Z 29011KT 10SM CLR M03/M10 A3020 RMK AO2 SLP226 T10281100
Loading
Personal Weather Stations






























Interactive Weather Map New forecast layout! Learn more

10-Day Weather Forecast

Advertisements
Track Severe Weather on mobile